sensor_id;sensor_type;location;lat;lon;timestamp;pressure;altitude;pressure_sealevel;temperature;humidity
25080;BME280;13071;48.868;9.996;2023-05-14T00:01:55;96487.94;;;10.96;96.64
25080;BME280;13071;48.868;9.996;2023-05-14T00:04:22;96491.09;;;10.86;97.59
25080;BME280;13071;48.868;9.996;2023-05-14T00:06:49;96492.09;;;10.81;98.28
25080;BME280;13071;48.868;9.996;2023-05-14T00:09:15;96486.47;;;10.87;96.82
25080;BME280;13071;48.868;9.996;2023-05-14T00:11:42;96480.97;;;10.95;96.20
25080;BME280;13071;48.868;9.996;2023-05-14T00:14:08;96483.91;;;10.90;96.76
25080;BME280;13071;48.868;9.996;2023-05-14T00:16:35;96478.34;;;10.87;96.61
25080;BME280;13071;48.868;9.996;2023-05-14T00:19:03;96480.84;;;10.92;96.48
25080;BME280;13071;48.868;9.996;2023-05-14T00:21:29;96474.19;;;10.89;96.42
25080;BME280;13071;48.868;9.996;2023-05-14T00:23:56;96468.19;;;10.83;96.45
25080;BME280;13071;48.868;9.996;2023-05-14T00:26:23;96467.97;;;10.89;96.60
25080;BME280;13071;48.868;9.996;2023-05-14T00:28:50;96472.13;;;10.86;96.40
25080;BME280;13071;48.868;9.996;2023-05-14T00:31:16;96464.00;;;10.86;96.45
25080;BME280;13071;48.868;9.996;2023-05-14T00:33:43;96464.47;;;10.88;96.25
25080;BME280;13071;48.868;9.996;2023-05-14T00:36:11;96460.59;;;10.65;98.09
25080;BME280;13071;48.868;9.996;2023-05-14T00:38:37;96464.31;;;10.60;98.23
25080;BME280;13071;48.868;9.996;2023-05-14T00:41:04;96462.41;;;10.73;96.83
25080;BME280;13071;48.868;9.996;2023-05-14T00:43:30;96459.91;;;10.68;97.54
25080;BME280;13071;48.868;9.996;2023-05-14T00:45:57;96461.38;;;10.65;98.32
25080;BME280;13071;48.868;9.996;2023-05-14T00:48:24;96460.53;;;10.53;98.94
25080;BME280;13071;48.868;9.996;2023-05-14T00:50:51;96457.84;;;10.53;99.61
25080;BME280;13071;48.868;9.996;2023-05-14T00:53:19;96458.94;;;10.52;98.69
25080;BME280;13071;48.868;9.996;2023-05-14T00:55:48;96456.44;;;10.47;99.58
25080;BME280;13071;48.868;9.996;2023-05-14T00:58:14;96460.50;;;10.41;100.00
25080;BME280;13071;48.868;9.996;2023-05-14T01:00:43;96451.13;;;10.38;100.00
25080;BME280;13071;48.868;9.996;2023-05-14T01:03:09;96454.94;;;10.37;100.00
25080;BME280;13071;48.868;9.996;2023-05-14T01:05:41;96460.13;;;10.30;100.00
25080;BME280;13071;48.868;9.996;2023-05-14T01:08:14;96458.06;;;10.27;100.00
25080;BME280;13071;48.868;9.996;2023-05-14T01:10:48;96453.84;;;10.17;100.00
25080;BME280;13071;48.868;9.996;2023-05-14T01:13:20;96455.16;;;10.11;100.00
25080;BME280;13071;48.868;9.996;2023-05-14T01:15:49;96453.91;;;10.09;100.00
25080;BME280;13071;48.868;9.996;2023-05-14T01:18:17;96455.56;;;10.01;100.00
25080;BME280;13071;48.868;9.996;2023-05-14T01:20:45;96456.59;;;10.09;100.00
25080;BME280;13071;48.868;9.996;2023-05-14T01:23:13;96454.50;;;10.14;100.00
25080;BME280;13071;48.868;9.996;2023-05-14T01:25:39;96451.31;;;10.12;100.00
25080;BME280;13071;48.868;9.996;2023-05-14T01:28:11;96454.38;;;10.11;100.00
25080;BME280;13071;48.868;9.996;2023-05-14T01:30:44;96451.41;;;10.04;100.00
25080;BME280;13071;48.868;9.996;2023-05-14T01:33:14;96449.59;;;10.08;100.00
25080;BME280;13071;48.868;9.996;2023-05-14T01:35:43;96448.38;;;10.05;100.00
25080;BME280;13071;48.868;9.996;2023-05-14T01:38:13;96449.97;;;10.06;100.00
25080;BME280;13071;48.868;9.996;2023-05-14T01:40:40;96448.50;;;10.09;100.00
25080;BME280;13071;48.868;9.996;2023-05-14T01:43:07;96454.38;;;10.11;100.00
25080;BME280;13071;48.868;9.996;2023-05-14T01:45:35;96442.69;;;9.98;100.00
25080;BME280;13071;48.868;9.996;2023-05-14T01:48:02;96448.69;;;10.04;100.00
25080;BME280;13071;48.868;9.996;2023-05-14T01:50:29;96450.09;;;10.10;100.00
25080;BME280;13071;48.868;9.996;2023-05-14T01:52:56;96449.81;;;10.03;100.00
25080;BME280;13071;48.868;9.996;2023-05-14T01:55:24;96444.16;;;9.95;100.00
25080;BME280;13071;48.868;9.996;2023-05-14T01:57:51;96448.41;;;9.96;100.00
25080;BME280;13071;48.868;9.996;2023-05-14T02:00:18;96450.66;;;9.74;100.00
25080;BME280;13071;48.868;9.996;2023-05-14T02:02:44;96447.50;;;9.92;100.00
25080;BME280;13071;48.868;9.996;2023-05-14T02:05:12;96446.50;;;9.97;100.00
25080;BME280;13071;48.868;9.996;2023-05-14T02:07:38;96445.59;;;9.93;100.00
25080;BME280;13071;48.868;9.996;2023-05-14T02:10:06;96446.78;;;9.83;100.00
25080;BME280;13071;48.868;9.996;2023-05-14T02:12:35;96442.50;;;10.03;100.00
25080;BME280;13071;48.868;9.996;2023-05-14T02:15:01;96447.06;;;9.90;100.00
25080;BME280;13071;48.868;9.996;2023-05-14T02:17:28;96445.00;;;10.08;100.00
25080;BME280;13071;48.868;9.996;2023-05-14T02:19:55;96445.88;;;10.00;100.00
25080;BME280;13071;48.868;9.996;2023-05-14T02:22:22;96433.25;;;10.04;100.00
25080;BME280;13071;48.868;9.996;2023-05-14T02:24:48;96438.34;;;10.06;100.00
25080;BME280;13071;48.868;9.996;2023-05-14T02:27:15;96428.84;;;10.00;100.00
25080;BME280;13071;48.868;9.996;2023-05-14T02:29:43;96433.16;;;10.01;100.00
25080;BME280;13071;48.868;9.996;2023-05-14T02:32:10;96428.38;;;9.97;100.00
25080;BME280;13071;48.868;9.996;2023-05-14T02:34:36;96432.53;;;9.95;100.00
25080;BME280;13071;48.868;9.996;2023-05-14T02:37:03;96435.19;;;10.04;100.00
25080;BME280;13071;48.868;9.996;2023-05-14T02:39:30;96436.75;;;10.05;100.00
25080;BME280;13071;48.868;9.996;2023-05-14T02:41:56;96431.75;;;9.94;100.00
25080;BME280;13071;48.868;9.996;2023-05-14T02:44:23;96444.56;;;10.06;100.00
25080;BME280;13071;48.868;9.996;2023-05-14T02:46:51;96436.56;;;10.10;100.00
25080;BME280;13071;48.868;9.996;2023-05-14T02:49:17;96426.97;;;10.12;100.00
25080;BME280;13071;48.868;9.996;2023-05-14T02:51:44;96435.28;;;10.16;100.00
25080;BME280;13071;48.868;9.996;2023-05-14T02:54:11;96438.09;;;10.19;100.00
25080;BME280;13071;48.868;9.996;2023-05-14T02:56:37;96440.81;;;10.19;100.00
25080;BME280;13071;48.868;9.996;2023-05-14T02:59:04;96438.91;;;10.20;100.00
25080;BME280;13071;48.868;9.996;2023-05-14T03:01:30;96436.19;;;10.20;100.00
25080;BME280;13071;48.868;9.996;2023-05-14T03:03:58;96423.16;;;10.13;100.00
25080;BME280;13071;48.868;9.996;2023-05-14T03:06:25;96425.03;;;10.01;100.00
25080;BME280;13071;48.868;9.996;2023-05-14T03:08:51;96431.69;;;10.03;100.00
25080;BME280;13071;48.868;9.996;2023-05-14T03:11:18;96429.25;;;9.89;100.00
25080;BME280;13071;48.868;9.996;2023-05-14T03:13:44;96433.34;;;9.75;100.00
25080;BME280;13071;48.868;9.996;2023-05-14T03:16:11;96435.44;;;9.69;100.00
25080;BME280;13071;48.868;9.996;2023-05-14T03:18:38;96431.69;;;9.62;100.00
25080;BME280;13071;48.868;9.996;2023-05-14T03:21:06;96442.00;;;9.60;100.00
25080;BME280;13071;48.868;9.996;2023-05-14T03:23:33;96439.47;;;9.34;100.00
25080;BME280;13071;48.868;9.996;2023-05-14T03:26:00;96437.13;;;9.53;100.00
25080;BME280;13071;48.868;9.996;2023-05-14T03:28:27;96434.69;;;9.60;100.00
25080;BME280;13071;48.868;9.996;2023-05-14T03:30:54;96434.84;;;9.34;100.00
25080;BME280;13071;48.868;9.996;2023-05-14T03:33:21;96437.66;;;9.46;100.00
25080;BME280;13071;48.868;9.996;2023-05-14T03:35:48;96431.47;;;9.46;100.00
25080;BME280;13071;48.868;9.996;2023-05-14T03:38:16;96429.19;;;9.48;100.00
25080;BME280;13071;48.868;9.996;2023-05-14T03:40:42;96435.34;;;9.57;100.00
25080;BME280;13071;48.868;9.996;2023-05-14T03:43:09;96434.00;;;9.42;100.00
25080;BME280;13071;48.868;9.996;2023-05-14T03:45:36;96433.78;;;9.27;100.00
25080;BME280;13071;48.868;9.996;2023-05-14T03:48:03;96430.75;;;9.28;100.00
25080;BME280;13071;48.868;9.996;2023-05-14T03:50:30;96440.47;;;9.21;100.00
25080;BME280;13071;48.868;9.996;2023-05-14T03:52:57;96440.34;;;9.17;100.00
25080;BME280;13071;48.868;9.996;2023-05-14T03:55:25;96436.09;;;9.07;100.00
25080;BME280;13071;48.868;9.996;2023-05-14T03:57:51;96441.47;;;9.16;100.00
25080;BME280;13071;48.868;9.996;2023-05-14T04:00:18;96444.66;;;9.09;100.00
25080;BME280;13071;48.868;9.996;2023-05-14T04:02:45;96437.41;;;9.01;100.00
25080;BME280;13071;48.868;9.996;2023-05-14T04:05:11;96429.66;;;8.91;100.00
25080;BME280;13071;48.868;9.996;2023-05-14T04:07:38;96435.16;;;9.03;100.00
25080;BME280;13071;48.868;9.996;2023-05-14T04:10:06;96429.75;;;9.03;100.00
25080;BME280;13071;48.868;9.996;2023-05-14T04:12:34;96436.84;;;9.17;100.00
25080;BME280;13071;48.868;9.996;2023-05-14T04:15:00;96432.56;;;9.16;100.00
25080;BME280;13071;48.868;9.996;2023-05-14T04:17:27;96434.91;;;9.26;100.00
25080;BME280;13071;48.868;9.996;2023-05-14T04:19:53;96436.50;;;9.27;100.00
25080;BME280;13071;48.868;9.996;2023-05-14T04:22:20;96431.59;;;9.20;100.00
25080;BME280;13071;48.868;9.996;2023-05-14T04:24:46;96427.91;;;9.25;100.00
25080;BME280;13071;48.868;9.996;2023-05-14T04:27:18;96428.03;;;9.28;100.00
25080;BME280;13071;48.868;9.996;2023-05-14T04:29:48;96434.91;;;9.26;100.00
25080;BME280;13071;48.868;9.996;2023-05-14T04:32:14;96438.22;;;9.31;100.00
25080;BME280;13071;48.868;9.996;2023-05-14T04:34:41;96434.97;;;9.38;100.00
25080;BME280;13071;48.868;9.996;2023-05-14T04:37:08;96437.34;;;9.10;100.00
25080;BME280;13071;48.868;9.996;2023-05-14T04:39:34;96437.47;;;9.22;100.00
25080;BME280;13071;48.868;9.996;2023-05-14T04:42:01;96431.63;;;9.12;100.00
25080;BME280;13071;48.868;9.996;2023-05-14T04:44:28;96429.44;;;9.05;100.00
25080;BME280;13071;48.868;9.996;2023-05-14T04:46:56;96433.88;;;9.09;100.00
25080;BME280;13071;48.868;9.996;2023-05-14T04:49:22;96432.25;;;9.17;100.00
25080;BME280;13071;48.868;9.996;2023-05-14T04:51:49;96432.63;;;9.36;100.00
25080;BME280;13071;48.868;9.996;2023-05-14T04:54:15;96425.94;;;9.34;100.00
25080;BME280;13071;48.868;9.996;2023-05-14T04:56:42;96423.00;;;9.47;100.00
25080;BME280;13071;48.868;9.996;2023-05-14T04:59:08;96418.09;;;9.49;100.00
25080;BME280;13071;48.868;9.996;2023-05-14T05:01:35;96424.75;;;9.73;100.00
25080;BME280;13071;48.868;9.996;2023-05-14T05:04:03;96427.38;;;9.61;100.00
25080;BME280;13071;48.868;9.996;2023-05-14T05:06:30;96425.72;;;9.47;100.00
25080;BME280;13071;48.868;9.996;2023-05-14T05:08:56;96436.84;;;9.46;100.00
25080;BME280;13071;48.868;9.996;2023-05-14T05:11:23;96430.91;;;9.52;100.00
25080;BME280;13071;48.868;9.996;2023-05-14T05:13:50;96430.47;;;9.50;100.00
25080;BME280;13071;48.868;9.996;2023-05-14T05:16:16;96426.13;;;9.58;100.00
25080;BME280;13071;48.868;9.996;2023-05-14T05:18:43;96427.22;;;9.57;100.00
25080;BME280;13071;48.868;9.996;2023-05-14T05:21:11;96425.22;;;9.75;100.00
25080;BME280;13071;48.868;9.996;2023-05-14T05:23:38;96430.38;;;9.88;100.00
25080;BME280;13071;48.868;9.996;2023-05-14T05:26:04;96425.69;;;9.97;100.00
25080;BME280;13071;48.868;9.996;2023-05-14T05:28:31;96417.44;;;9.94;100.00
25080;BME280;13071;48.868;9.996;2023-05-14T05:30:57;96416.31;;;9.95;100.00
25080;BME280;13071;48.868;9.996;2023-05-14T05:33:24;96421.41;;;10.17;100.00
25080;BME280;13071;48.868;9.996;2023-05-14T05:35:51;96412.66;;;10.20;100.00
25080;BME280;13071;48.868;9.996;2023-05-14T05:38:19;96407.72;;;10.14;100.00
25080;BME280;13071;48.868;9.996;2023-05-14T05:40:45;96404.56;;;10.12;100.00
25080;BME280;13071;48.868;9.996;2023-05-14T05:43:13;96417.25;;;9.99;100.00
25080;BME280;13071;48.868;9.996;2023-05-14T05:45:39;96415.59;;;10.27;100.00
25080;BME280;13071;48.868;9.996;2023-05-14T05:48:06;96419.16;;;9.98;100.00
25080;BME280;13071;48.868;9.996;2023-05-14T05:50:33;96405.03;;;10.34;100.00
25080;BME280;13071;48.868;9.996;2023-05-14T05:52:59;96406.72;;;10.39;100.00
25080;BME280;13071;48.868;9.996;2023-05-14T05:55:28;96411.25;;;10.47;100.00
25080;BME280;13071;48.868;9.996;2023-05-14T05:57:55;96406.44;;;10.53;100.00
25080;BME280;13071;48.868;9.996;2023-05-14T06:00:21;96397.88;;;10.63;100.00
25080;BME280;13071;48.868;9.996;2023-05-14T06:02:48;96404.66;;;10.81;100.00
25080;BME280;13071;48.868;9.996;2023-05-14T06:05:15;96403.94;;;11.05;100.00
25080;BME280;13071;48.868;9.996;2023-05-14T06:07:41;96404.03;;;11.33;97.64
25080;BME280;13071;48.868;9.996;2023-05-14T06:10:08;96404.72;;;11.30;96.98
25080;BME280;13071;48.868;9.996;2023-05-14T06:12:36;96409.56;;;11.48;97.69
25080;BME280;13071;48.868;9.996;2023-05-14T06:15:03;96411.16;;;11.49;95.28
25080;BME280;13071;48.868;9.996;2023-05-14T06:17:29;96409.19;;;11.50;96.20
25080;BME280;13071;48.868;9.996;2023-05-14T06:19:56;96411.31;;;11.93;94.50
25080;BME280;13071;48.868;9.996;2023-05-14T06:22:23;96410.63;;;11.96;93.59
25080;BME280;13071;48.868;9.996;2023-05-14T06:24:49;96411.09;;;11.61;98.87
25080;BME280;13071;48.868;9.996;2023-05-14T06:27:16;96415.16;;;12.20;95.52
25080;BME280;13071;48.868;9.996;2023-05-14T06:29:44;96400.28;;;12.14;94.73
25080;BME280;13071;48.868;9.996;2023-05-14T06:32:10;96400.81;;;11.67;94.95
25080;BME280;13071;48.868;9.996;2023-05-14T06:34:39;96405.00;;;12.17;92.05
25080;BME280;13071;48.868;9.996;2023-05-14T06:37:06;96405.50;;;12.06;93.14
25080;BME280;13071;48.868;9.996;2023-05-14T06:39:33;96405.63;;;12.53;91.62
25080;BME280;13071;48.868;9.996;2023-05-14T06:42:00;96403.66;;;12.66;89.90
25080;BME280;13071;48.868;9.996;2023-05-14T06:44:27;96410.66;;;12.67;90.21
25080;BME280;13071;48.868;9.996;2023-05-14T06:46:55;96418.81;;;12.11;93.85
25080;BME280;13071;48.868;9.996;2023-05-14T06:49:22;96430.38;;;12.36;92.37
25080;BME280;13071;48.868;9.996;2023-05-14T06:51:48;96422.72;;;12.26;93.41
25080;BME280;13071;48.868;9.996;2023-05-14T06:54:15;96426.88;;;11.96;93.10
25080;BME280;13071;48.868;9.996;2023-05-14T06:56:41;96419.44;;;12.33;93.51
25080;BME280;13071;48.868;9.996;2023-05-14T06:59:08;96408.63;;;12.64;90.91
25080;BME280;13071;48.868;9.996;2023-05-14T07:01:35;96411.38;;;12.80;90.51
25080;BME280;13071;48.868;9.996;2023-05-14T07:04:03;96416.38;;;13.09;89.51
25080;BME280;13071;48.868;9.996;2023-05-14T07:06:29;96415.41;;;12.86;90.10
25080;BME280;13071;48.868;9.996;2023-05-14T07:08:56;96414.97;;;12.40;91.96
25080;BME280;13071;48.868;9.996;2023-05-14T07:11:23;96418.00;;;12.23;92.58
25080;BME280;13071;48.868;9.996;2023-05-14T07:13:50;96412.59;;;12.82;89.18
25080;BME280;13071;48.868;9.996;2023-05-14T07:16:16;96418.13;;;13.02;87.17
25080;BME280;13071;48.868;9.996;2023-05-14T07:18:43;96405.69;;;13.01;88.69
25080;BME280;13071;48.868;9.996;2023-05-14T07:21:11;96414.03;;;13.39;86.97
25080;BME280;13071;48.868;9.996;2023-05-14T07:23:38;96405.25;;;13.30;85.73
25080;BME280;13071;48.868;9.996;2023-05-14T07:26:05;96414.34;;;13.53;83.86
25080;BME280;13071;48.868;9.996;2023-05-14T07:28:31;96420.19;;;13.71;83.13
25080;BME280;13071;48.868;9.996;2023-05-14T07:30:58;96415.19;;;13.73;81.27
25080;BME280;13071;48.868;9.996;2023-05-14T07:33:25;96415.47;;;13.68;82.30
25080;BME280;13071;48.868;9.996;2023-05-14T07:35:52;96415.47;;;13.68;83.44
25080;BME280;13071;48.868;9.996;2023-05-14T07:38:20;96414.13;;;13.77;82.44
25080;BME280;13071;48.868;9.996;2023-05-14T07:40:47;96412.06;;;13.90;81.73
25080;BME280;13071;48.868;9.996;2023-05-14T07:43:13;96412.31;;;14.01;82.06
25080;BME280;13071;48.868;9.996;2023-05-14T07:45:40;96409.97;;;13.49;82.80
25080;BME280;13071;48.868;9.996;2023-05-14T07:48:06;96406.78;;;14.36;83.30
25080;BME280;13071;48.868;9.996;2023-05-14T07:50:33;96400.34;;;14.63;79.59
25080;BME280;13071;48.868;9.996;2023-05-14T07:53:00;96397.75;;;15.38;76.34
25080;BME280;13071;48.868;9.996;2023-05-14T07:55:27;96404.00;;;15.16;76.99
25080;BME280;13071;48.868;9.996;2023-05-14T07:57:54;96409.41;;;14.70;77.88
25080;BME280;13071;48.868;9.996;2023-05-14T08:00:21;96406.69;;;14.70;78.99
25080;BME280;13071;48.868;9.996;2023-05-14T08:02:47;96406.06;;;15.23;77.15
25080;BME280;13071;48.868;9.996;2023-05-14T08:05:14;96399.53;;;15.04;76.18
25080;BME280;13071;48.868;9.996;2023-05-14T08:07:41;96407.94;;;14.54;77.08
25080;BME280;13071;48.868;9.996;2023-05-14T08:10:08;96402.28;;;14.62;79.05
25080;BME280;13071;48.868;9.996;2023-05-14T08:12:36;96401.16;;;13.71;80.71
25080;BME280;13071;48.868;9.996;2023-05-14T08:15:04;96410.34;;;14.01;82.52
25080;BME280;13071;48.868;9.996;2023-05-14T08:17:31;96393.38;;;14.08;82.77
25080;BME280;13071;48.868;9.996;2023-05-14T08:19:59;96402.69;;;14.07;80.55
25080;BME280;13071;48.868;9.996;2023-05-14T08:22:26;96395.78;;;14.48;78.87
25080;BME280;13071;48.868;9.996;2023-05-14T08:24:52;96395.56;;;14.37;82.21
25080;BME280;13071;48.868;9.996;2023-05-14T08:27:19;96398.13;;;14.11;80.54
25080;BME280;13071;48.868;9.996;2023-05-14T08:29:47;96400.41;;;14.09;82.39
25080;BME280;13071;48.868;9.996;2023-05-14T08:32:13;96398.00;;;14.42;78.05
25080;BME280;13071;48.868;9.996;2023-05-14T08:34:40;96388.59;;;14.59;76.15
25080;BME280;13071;48.868;9.996;2023-05-14T08:37:07;96389.03;;;14.42;77.99
25080;BME280;13071;48.868;9.996;2023-05-14T08:39:33;96382.22;;;14.51;77.20
25080;BME280;13071;48.868;9.996;2023-05-14T08:42:01;96390.78;;;14.73;76.60
25080;BME280;13071;48.868;9.996;2023-05-14T08:44:33;96393.81;;;14.67;77.02
25080;BME280;13071;48.868;9.996;2023-05-14T08:47:03;96397.66;;;14.44;77.51
25080;BME280;13071;48.868;9.996;2023-05-14T08:49:36;96384.22;;;14.35;76.83
25080;BME280;13071;48.868;9.996;2023-05-14T08:52:05;96378.69;;;14.51;76.45
25080;BME280;13071;48.868;9.996;2023-05-14T08:54:32;96383.56;;;14.03;76.81
25080;BME280;13071;48.868;9.996;2023-05-14T08:56:59;96375.81;;;14.40;76.54
25080;BME280;13071;48.868;9.996;2023-05-14T08:59:26;96380.56;;;14.47;76.62
25080;BME280;13071;48.868;9.996;2023-05-14T09:01:53;96372.31;;;14.85;75.62
25080;BME280;13071;48.868;9.996;2023-05-14T09:04:23;96380.13;;;14.87;74.53
25080;BME280;13071;48.868;9.996;2023-05-14T09:06:51;96378.09;;;15.03;74.37
25080;BME280;13071;48.868;9.996;2023-05-14T09:09:19;96377.41;;;15.09;74.78
25080;BME280;13071;48.868;9.996;2023-05-14T09:11:47;96374.91;;;15.24;73.37
25080;BME280;13071;48.868;9.996;2023-05-14T09:14:14;96370.09;;;15.40;73.64
25080;BME280;13071;48.868;9.996;2023-05-14T09:16:42;96370.16;;;15.70;73.17
25080;BME280;13071;48.868;9.996;2023-05-14T09:19:11;96377.69;;;15.27;73.04
25080;BME280;13071;48.868;9.996;2023-05-14T09:21:39;96374.63;;;15.06;72.36
25080;BME280;13071;48.868;9.996;2023-05-14T09:24:06;96362.75;;;15.18;71.87
25080;BME280;13071;48.868;9.996;2023-05-14T09:26:34;96366.03;;;15.04;75.53
25080;BME280;13071;48.868;9.996;2023-05-14T09:29:01;96363.00;;;14.86;76.80
25080;BME280;13071;48.868;9.996;2023-05-14T09:31:28;96368.38;;;15.05;73.30
25080;BME280;13071;48.868;9.996;2023-05-14T09:33:56;96359.50;;;15.35;73.49
25080;BME280;13071;48.868;9.996;2023-05-14T09:36:23;96361.47;;;15.61;74.63
25080;BME280;13071;48.868;9.996;2023-05-14T09:38:55;96360.88;;;15.74;73.45
25080;BME280;13071;48.868;9.996;2023-05-14T09:41:21;96357.59;;;15.62;72.33
25080;BME280;13071;48.868;9.996;2023-05-14T09:43:49;96353.84;;;15.73;70.57
25080;BME280;13071;48.868;9.996;2023-05-14T09:46:15;96342.69;;;16.15;71.44
25080;BME280;13071;48.868;9.996;2023-05-14T09:48:42;96333.75;;;16.55;70.42
25080;BME280;13071;48.868;9.996;2023-05-14T09:51:09;96340.97;;;16.04;73.56
25080;BME280;13071;48.868;9.996;2023-05-14T09:53:36;96332.59;;;15.89;73.59
25080;BME280;13071;48.868;9.996;2023-05-14T09:56:04;96332.91;;;15.81;71.05
25080;BME280;13071;48.868;9.996;2023-05-14T09:58:31;96328.34;;;15.59;70.83
25080;BME280;13071;48.868;9.996;2023-05-14T10:00:59;96328.47;;;15.17;73.61
25080;BME280;13071;48.868;9.996;2023-05-14T10:03:28;96331.66;;;15.22;70.78
25080;BME280;13071;48.868;9.996;2023-05-14T10:05:57;96330.56;;;15.27;72.74
25080;BME280;13071;48.868;9.996;2023-05-14T10:08:27;96327.59;;;15.62;70.30
25080;BME280;13071;48.868;9.996;2023-05-14T10:10:57;96325.53;;;15.85;72.39
25080;BME280;13071;48.868;9.996;2023-05-14T10:13:29;96327.63;;;15.39;69.64
25080;BME280;13071;48.868;9.996;2023-05-14T10:16:07;96319.97;;;15.48;69.58
25080;BME280;13071;48.868;9.996;2023-05-14T10:18:40;96321.03;;;15.99;67.65
25080;BME280;13071;48.868;9.996;2023-05-14T10:21:07;96309.78;;;16.05;67.58
25080;BME280;13071;48.868;9.996;2023-05-14T10:23:34;96309.22;;;16.59;67.90
25080;BME280;13071;48.868;9.996;2023-05-14T10:26:02;96310.84;;;16.30;69.72
25080;BME280;13071;48.868;9.996;2023-05-14T10:28:31;96320.00;;;16.48;68.22
25080;BME280;13071;48.868;9.996;2023-05-14T10:30:58;96305.97;;;16.46;69.25
25080;BME280;13071;48.868;9.996;2023-05-14T10:33:25;96320.41;;;16.47;66.96
25080;BME280;13071;48.868;9.996;2023-05-14T10:36:10;96319.94;;;16.41;70.83
25080;BME280;13071;48.868;9.996;2023-05-14T10:38:37;96320.31;;;16.03;68.61
25080;BME280;13071;48.868;9.996;2023-05-14T10:41:06;96308.13;;;15.63;71.17
25080;BME280;13071;48.868;9.996;2023-05-14T10:43:38;96308.47;;;15.91;70.24
25080;BME280;13071;48.868;9.996;2023-05-14T10:46:05;96309.88;;;16.12;73.15
25080;BME280;13071;48.868;9.996;2023-05-14T10:48:33;96309.69;;;16.31;67.32
25080;BME280;13071;48.868;9.996;2023-05-14T10:51:00;96305.28;;;16.56;65.58
25080;BME280;13071;48.868;9.996;2023-05-14T10:53:31;96304.97;;;16.61;66.11
25080;BME280;13071;48.868;9.996;2023-05-14T10:56:02;96306.38;;;16.89;66.20
25080;BME280;13071;48.868;9.996;2023-05-14T10:58:30;96293.66;;;17.07;65.13
25080;BME280;13071;48.868;9.996;2023-05-14T11:00:59;96295.97;;;17.08;65.48
25080;BME280;13071;48.868;9.996;2023-05-14T11:03:28;96299.41;;;16.54;66.48
25080;BME280;13071;48.868;9.996;2023-05-14T11:05:55;96295.19;;;16.60;65.33
25080;BME280;13071;48.868;9.996;2023-05-14T11:08:21;96289.50;;;16.39;65.25
25080;BME280;13071;48.868;9.996;2023-05-14T11:10:48;96285.81;;;16.24;66.95
25080;BME280;13071;48.868;9.996;2023-05-14T11:13:15;96284.16;;;16.13;69.36
25080;BME280;13071;48.868;9.996;2023-05-14T11:15:42;96282.56;;;16.49;68.06
25080;BME280;13071;48.868;9.996;2023-05-14T11:18:25;96275.06;;;16.79;66.07
25080;BME280;13071;48.868;9.996;2023-05-14T11:20:51;96273.31;;;17.08;62.64
25080;BME280;13071;48.868;9.996;2023-05-14T11:23:22;96269.44;;;16.61;65.53
25080;BME280;13071;48.868;9.996;2023-05-14T11:25:50;96276.03;;;16.20;69.37
25080;BME280;13071;48.868;9.996;2023-05-14T11:28:16;96272.41;;;16.49;65.29
25080;BME280;13071;48.868;9.996;2023-05-14T11:30:44;96268.91;;;16.93;67.87
25080;BME280;13071;48.868;9.996;2023-05-14T11:33:11;96264.56;;;16.84;65.82
25080;BME280;13071;48.868;9.996;2023-05-14T11:35:39;96260.75;;;17.61;61.64
25080;BME280;13071;48.868;9.996;2023-05-14T11:38:12;96250.41;;;18.13;65.45
25080;BME280;13071;48.868;9.996;2023-05-14T11:40:39;96264.03;;;17.23;67.70
25080;BME280;13071;48.868;9.996;2023-05-14T11:43:06;96256.69;;;16.35;67.02
25080;BME280;13071;48.868;9.996;2023-05-14T11:45:32;96269.91;;;16.30;68.93
25080;BME280;13071;48.868;9.996;2023-05-14T11:48:00;96269.31;;;16.51;68.03
25080;BME280;13071;48.868;9.996;2023-05-14T11:50:27;96255.09;;;16.31;67.91
25080;BME280;13071;48.868;9.996;2023-05-14T11:52:56;96258.56;;;15.91;66.82
25080;BME280;13071;48.868;9.996;2023-05-14T11:55:23;96253.38;;;16.16;71.31
25080;BME280;13071;48.868;9.996;2023-05-14T11:57:50;96253.94;;;16.32;68.31
25080;BME280;13071;48.868;9.996;2023-05-14T12:00:18;96260.06;;;16.22;66.50
25080;BME280;13071;48.868;9.996;2023-05-14T12:02:46;96253.75;;;16.14;66.50
25080;BME280;13071;48.868;9.996;2023-05-14T12:05:13;96244.34;;;16.08;67.07
25080;BME280;13071;48.868;9.996;2023-05-14T12:07:43;96249.50;;;16.17;66.72
25080;BME280;13071;48.868;9.996;2023-05-14T12:10:11;96246.66;;;16.47;66.31
25080;BME280;13071;48.868;9.996;2023-05-14T12:12:38;96250.09;;;16.40;68.94
25080;BME280;13071;48.868;9.996;2023-05-14T12:15:10;96249.63;;;16.31;69.25
25080;BME280;13071;48.868;9.996;2023-05-14T12:17:36;96250.16;;;16.07;68.42
25080;BME280;13071;48.868;9.996;2023-05-14T12:20:04;96249.47;;;16.13;70.44
25080;BME280;13071;48.868;9.996;2023-05-14T12:22:34;96253.41;;;16.19;68.86
25080;BME280;13071;48.868;9.996;2023-05-14T12:25:01;96244.41;;;15.78;67.77
25080;BME280;13071;48.868;9.996;2023-05-14T12:27:29;96238.75;;;15.64;69.26
25080;BME280;13071;48.868;9.996;2023-05-14T12:29:57;96242.84;;;15.81;67.45
25080;BME280;13071;48.868;9.996;2023-05-14T12:32:25;96249.97;;;15.89;68.02
25080;BME280;13071;48.868;9.996;2023-05-14T12:34:51;96233.50;;;16.19;67.34
25080;BME280;13071;48.868;9.996;2023-05-14T12:37:18;96234.72;;;16.21;66.70
25080;BME280;13071;48.868;9.996;2023-05-14T12:39:45;96236.22;;;16.15;68.58
25080;BME280;13071;48.868;9.996;2023-05-14T12:42:13;96236.63;;;16.17;67.63
25080;BME280;13071;48.868;9.996;2023-05-14T12:44:41;96238.59;;;16.20;68.87
25080;BME280;13071;48.868;9.996;2023-05-14T12:47:08;96223.44;;;16.23;66.45
25080;BME280;13071;48.868;9.996;2023-05-14T12:49:35;96230.44;;;15.83;67.32
25080;BME280;13071;48.868;9.996;2023-05-14T12:52:01;96235.63;;;15.62;67.69
25080;BME280;13071;48.868;9.996;2023-05-14T12:54:28;96236.88;;;15.68;68.02
25080;BME280;13071;48.868;9.996;2023-05-14T12:56:56;96232.41;;;15.86;67.77
25080;BME280;13071;48.868;9.996;2023-05-14T12:59:22;96231.31;;;15.94;68.32